Hauptseite
METAR-TAF:

METAR-TAF

Flughäfen :

London Luton Airport

Luton, England

Breite: 51-52N, Länge: 000-22W, Höhe: 160 m

Beobachtung

Neuester Wetterbericht von vor 17 Minuten, um 12:50 UTC
Wind 4 kt aus Nord/Nordost, variierte zwischen West/Nordwest und Ost
Temperatur 21°C
Luftfeuchtigkeit 53%
Luftdruck 1035 hPa
Sichtweite 10 km oder mehr
Durchbrochene Bewölkung in der Höhe von 4200 ft

METAR: EGGW 271250Z AUTO 02004KT 290V080 9999 BKN042 21/11 Q1035

Zeit: 14:07 (13:07 UTC)

Prognose

Neuester Wetterbericht von vor 2 Stunden und 2 Minuten, um 11:05 UTC
Gültige Prognose vom 27 um 12 UTC bis 28 um 12 UTC
Wind 5 kt aus unterschiedlichen Richtungen
Sichtweite 10 km oder mehr
Aufgelockert bewölkt in der Höhe von 4500 ft
Wahrscheinlichkeit 30%
vom 28 um 03 UTC bis 28 um 07 UTC
Sichtweite: 8000 m
Durchbrochene Bewölkung in der Höhe von 400 ft

TAF: EGGW 271105Z 2712/2812 VRB05KT 9999 SCT045 PROB30 2803/2807 8000 BKN004

Wetterbeobachtungen und Prognosen von mehr als 4000 Flughäfen (METAR und TAF Bericht).

Die verfügbaren Stationen werden durch gelbe und rote Markierungen auf der Karte dargestellt.

Führen Sie die Maus auf sie, um den Namen der Station zu sehen.

Darauf klicken, um die Beobachtung von Wetterbeobachtungen und Prognosen zu sehen.

Um die Karte zu ändern : klicken Sie auf den grünen Tasten mit einem schwarzen Kreuz Zum Vergrößern, auf den grünen Button mit einem Gedankenstrich zu verkleinern, oder auf die grünen Pfeile für benachbarte Karten.


METAR-TAF: